CheckWX is a tool to help pilots better visualize weather data.  It is not intended as a substitute for an official pre-flight weather briefing.

20:04:30 UTC

KONA METAR
Winona Municipal-Max Conrad Field Airport
Winona, Minnesota, USA
Current

9 mins ago

KONA 261956Z AUTO 03005KT 10SM CLR 22/10 A3009 RMK AO2
Observed
May-26 @ 19:56 UTC
Wind
  • 030° at 5 KTS
Visibility
10 SM
Flight Rules
VFR
Cloud Levels
  • Clear skies
Temperature
22°C / 72°F
Dewpoint
10°C / 50°F
Humidity
47%
Altimeter
30.09" Hg
Pressure
1018.92 hPa
Previous

30 mins ago

KONA 261935Z AUTO 01003KT 10SM CLR 21/10 A3009 RMK AO2
Observed
May-26 @ 19:35 UTC
Wind
  • 010° at 3 KTS
Visibility
10 SM
Flight Rules
VFR
Cloud Levels
  • Clear skies
Temperature
21°C / 70°F
Dewpoint
10°C / 50°F
Humidity
50%
Altimeter
30.09" Hg
Pressure
1018.92 hPa
Previous

49 mins ago

KONA 261916Z AUTO 05003KT 10SM CLR 21/10 A3009 RMK AO2
Observed
May-26 @ 19:16 UTC
Wind
  • 050° at 3 KTS
Visibility
10 SM
Flight Rules
VFR
Cloud Levels
  • Clear skies
Temperature
21°C / 70°F
Dewpoint
10°C / 50°F
Humidity
50%
Altimeter
30.09" Hg
Pressure
1018.92 hPa